Ishizuchi — 3ESS5 — position and weather

sailwx.info

Track history (hours):
 
Tides and Currents Weather Stations Pressure Air Temp Water Temp Dewpoint Dewpoint Depression Visibility Wind Speed Wind Dir Waves Ship Positions

Ishizuchi

Last reported at 2017-Nov-20 00:30 UTC. Time now 2017-Nov-23 17:10 UTC.
Position S 33°11' E 152°02'.

Length 229 m; draft 7 m.

Type: Cargo ship. MMSI: 370410000.

Date/timePositionNaut miles runAvg speedWind from/ knotsBaromVisibWave heightAir tempDewpointWater temp
2017-Nov-20 00:30S 33°11' E 152°02'1 2.4
2017-Nov-20 00:01S 33°11' E 152°04'1 1.9
2017-Nov-19 23:29S 33°11' E 152°05'1 1.9
2017-Nov-19 22:59S 33°11' E 152°06'1 1.7
2017-Nov-19 22:26S 33°10' E 152°07'1 1.7
2017-Nov-19 21:56S 33°10' E 152°08'1 1.7
2017-Nov-19 21:29S 33°10' E 152°09'1 1.6
2017-Nov-19 20:56S 33°10' E 152°10'1 1.6
2017-Nov-19 20:29S 33°10' E 152°11'1 1.6
2017-Nov-19 19:59S 33°10' E 152°12'1 1.4
2017-Nov-19 19:29S 33°10' E 152°13'1 1.3
2017-Nov-19 18:56S 33°11' E 152°14'1 1.3
2017-Nov-19 18:20S 33°11' E 152°15'1 1.4
2017-Nov-19 17:56S 33°11' E 152°15'1 1.3
2017-Nov-19 17:29S 33°11' E 152°16'1 1.2
2017-Nov-19 16:59S 33°11' E 152°17'1 1.3
2017-Nov-19 16:29S 33°11' E 152°17'1 1.4
2017-Nov-19 15:47S 33°11' E 152°19'1 1.4
2017-Nov-19 15:26S 33°11' E 152°19'1 1.5
2017-Nov-19 14:56S 33°11' E 152°20'1 1.6
2017-Nov-19 14:29S 33°11' E 152°21'1 1.7
2017-Nov-19 13:56S 33°11' E 152°22'1 1.8
2017-Nov-19 13:26S 33°11' E 152°23'1 1.7
2017-Nov-19 12:59S 33°10' E 152°24'3 1.7
2017-Nov-19 11:02S 33°10' E 152°28'1 1.8
2017-Nov-19 10:32S 33°10' E 152°29'0 1.5
2017-Nov-19 10:26S 33°10' E 152°29'1 1.8
2017-Nov-19 09:59S 33°10' E 152°30'0 0.8
2017-Nov-19 09:20S 33°11' E 152°31'4 7.9
2017-Nov-19 08:49S 33°11' E 152°26'413.3
2017-Nov-19 08:29S 33°10' E 152°21'613.0
2017-Nov-19 08:01S 33°10' E 152°13'611.6
2017-Nov-19 07:30S 33°10' E 152°06'1 2.2
2017-Nov-19 06:55S 33°10' E 152°05'1 2.6
2017-Nov-19 06:25S 33°10' E 152°06'1 2.7
2017-Nov-19 05:58S 33°09' E 152°08'1 2.4
2017-Nov-19 05:25S 33°09' E 152°09'1 2.3
2017-Nov-19 04:55S 33°09' E 152°11'1 2.4
2017-Nov-19 04:28S 33°09' E 152°12'1 2.5
2017-Nov-19 03:58S 33°08' E 152°13'1 2.6
2017-Nov-19 03:25S 33°08' E 152°15'1 2.2
2017-Nov-19 02:58S 33°08' E 152°16'1 2.0
2017-Nov-19 02:25S 33°08' E 152°18'1 1.9
2017-Nov-19 01:58S 33°08' E 152°19'1 1.5
2017-Nov-19 01:28S 33°08' E 152°19'3 7.6
2017-Nov-19 01:01S 33°06' E 152°16'611.7
2017-Nov-19 00:30S 33°06' E 152°09'612.2
2017-Nov-19 00:00S 33°05' E 152°01'510.7
2017-Nov-18 23:30S 33°01' E 151°58'612.6
2017-Nov-18 23:00S 32°57' E 152°03'713.9
2017-Nov-18 22:30S 32°53' E 152°11'714.2
2017-Nov-18 22:00S 32°50' E 152°18'713.8
2017-Nov-18 21:31S 32°45' E 152°24'714.1
2017-Nov-18 21:01S 32°42' E 152°32'714.7
2017-Nov-18 20:31S 32°38' E 152°39'714.3
2017-Nov-18 20:00S 32°34' E 152°46'23813.8
2017-Nov-18 02:48S 28°41' E 153°45'514.7
2017-Nov-18 02:29S 28°36' E 153°46'714.7
2017-Nov-18 02:00S 28°30' E 153°42'815.4
2017-Nov-18 01:30S 28°22' E 153°42'815.6
2017-Nov-18 01:00S 28°15' E 153°42'815.7
2017-Nov-18 00:30S 28°07' E 153°42'816.2
2017-Nov-18 00:00S 27°59' E 153°42'917.1
2017-Nov-17 23:30S 27°50' E 153°43'917.7
2017-Nov-17 23:01S 27°41' E 153°43'917.7
2017-Nov-17 22:30S 27°32' E 153°43'917.2
2017-Nov-17 22:00S 27°24' E 153°43'816.2
2017-Nov-17 21:29S 27°15' E 153°42'  
Track history (hours):
 
Tides and Currents Weather Stations Pressure Air Temp Water Temp Dewpoint Dewpoint Depression Visibility Wind Speed Wind Dir Waves Ship Positions

Ishizuchi

Last reported at 2017-Nov-20 00:30 UTC. Time now 2017-Nov-23 17:10 UTC.
Position S 33°11' E 152°02'.

Length 229 m; draft 7 m.

Type: Cargo ship. MMSI: 370410000.

Date/timePositionNaut miles runAvg speedWind from/ knotsBaromVisibWave heightAir tempDewpointWater temp
2017-Nov-20 00:30S 33°11' E 152°02'1 2.4
2017-Nov-20 00:01S 33°11' E 152°04'1 1.9
2017-Nov-19 23:29S 33°11' E 152°05'1 1.9
2017-Nov-19 22:59S 33°11' E 152°06'1 1.7
2017-Nov-19 22:26S 33°10' E 152°07'1 1.7
2017-Nov-19 21:56S 33°10' E 152°08'1 1.7
2017-Nov-19 21:29S 33°10' E 152°09'1 1.6
2017-Nov-19 20:56S 33°10' E 152°10'1 1.6
2017-Nov-19 20:29S 33°10' E 152°11'1 1.6
2017-Nov-19 19:59S 33°10' E 152°12'1 1.4
2017-Nov-19 19:29S 33°10' E 152°13'1 1.3
2017-Nov-19 18:56S 33°11' E 152°14'1 1.3
2017-Nov-19 18:20S 33°11' E 152°15'1 1.4
2017-Nov-19 17:56S 33°11' E 152°15'1 1.3
2017-Nov-19 17:29S 33°11' E 152°16'1 1.2
2017-Nov-19 16:59S 33°11' E 152°17'1 1.3
2017-Nov-19 16:29S 33°11' E 152°17'1 1.4
2017-Nov-19 15:47S 33°11' E 152°19'1 1.4
2017-Nov-19 15:26S 33°11' E 152°19'1 1.5
2017-Nov-19 14:56S 33°11' E 152°20'1 1.6
2017-Nov-19 14:29S 33°11' E 152°21'1 1.7
2017-Nov-19 13:56S 33°11' E 152°22'1 1.8
2017-Nov-19 13:26S 33°11' E 152°23'1 1.7
2017-Nov-19 12:59S 33°10' E 152°24'3 1.7
2017-Nov-19 11:02S 33°10' E 152°28'1 1.8
2017-Nov-19 10:32S 33°10' E 152°29'0 1.5
2017-Nov-19 10:26S 33°10' E 152°29'1 1.8
2017-Nov-19 09:59S 33°10' E 152°30'0 0.8
2017-Nov-19 09:20S 33°11' E 152°31'4 7.9
2017-Nov-19 08:49S 33°11' E 152°26'413.3
2017-Nov-19 08:29S 33°10' E 152°21'613.0
2017-Nov-19 08:01S 33°10' E 152°13'611.6
2017-Nov-19 07:30S 33°10' E 152°06'1 2.2
2017-Nov-19 06:55S 33°10' E 152°05'1 2.6
2017-Nov-19 06:25S 33°10' E 152°06'1 2.7
2017-Nov-19 05:58S 33°09' E 152°08'1 2.4
2017-Nov-19 05:25S 33°09' E 152°09'1 2.3
2017-Nov-19 04:55S 33°09' E 152°11'1 2.4
2017-Nov-19 04:28S 33°09' E 152°12'1 2.5
2017-Nov-19 03:58S 33°08' E 152°13'1 2.6
2017-Nov-19 03:25S 33°08' E 152°15'1 2.2
2017-Nov-19 02:58S 33°08' E 152°16'1 2.0
2017-Nov-19 02:25S 33°08' E 152°18'1 1.9
2017-Nov-19 01:58S 33°08' E 152°19'1 1.5
2017-Nov-19 01:28S 33°08' E 152°19'3 7.6
2017-Nov-19 01:01S 33°06' E 152°16'611.7
2017-Nov-19 00:30S 33°06' E 152°09'612.2
2017-Nov-19 00:00S 33°05' E 152°01'510.7
2017-Nov-18 23:30S 33°01' E 151°58'612.6
2017-Nov-18 23:00S 32°57' E 152°03'713.9
2017-Nov-18 22:30S 32°53' E 152°11'714.2
2017-Nov-18 22:00S 32°50' E 152°18'713.8
2017-Nov-18 21:31S 32°45' E 152°24'714.1
2017-Nov-18 21:01S 32°42' E 152°32'714.7
2017-Nov-18 20:31S 32°38' E 152°39'714.3
2017-Nov-18 20:00S 32°34' E 152°46'23813.8
2017-Nov-18 02:48S 28°41' E 153°45'514.7
2017-Nov-18 02:29S 28°36' E 153°46'714.7
2017-Nov-18 02:00S 28°30' E 153°42'815.4
2017-Nov-18 01:30S 28°22' E 153°42'815.6
2017-Nov-18 01:00S 28°15' E 153°42'815.7
2017-Nov-18 00:30S 28°07' E 153°42'816.2
2017-Nov-18 00:00S 27°59' E 153°42'917.1
2017-Nov-17 23:30S 27°50' E 153°43'917.7
2017-Nov-17 23:01S 27°41' E 153°43'917.7
2017-Nov-17 22:30S 27°32' E 153°43'917.2
2017-Nov-17 22:00S 27°24' E 153°43'816.2
2017-Nov-17 21:29S 27°15' E 153°42'  

Dump ship's entire track history